LEIB/IBZ METAR and TAF weather

Enter ICAO airport designator
Station Type Date Time Source
LEIB METAR 2018/12/13 07:00 UTC NOAA

LEIB 130700Z 26012KT 230V290 9999 FEW020 16/08 Q1011 NOSIG


Station Type Date Time Source
LEIB Decoded METAR 2018/12/13 07:00 UTC NOAA

Ibiza / Es Codola, Spain (LEIB) 38-52N 001-23E 12M
Dec 13, 2018 - 02:00 AM EST / 2018.12.13 0700 UTC
Wind: from the W (260 degrees) at 14 MPH (12 KT) (direction variable):0
Visibility: greater than 7 mile(s):0
Sky conditions: mostly clear
Temperature: 60 F (16 C)
Dew Point: 46 F (8 C)
Relative Humidity: 58%
Pressure (altimeter): 29.85 in. Hg (1011 hPa)
ob: LEIB 130700Z 26012KT 230V290 9999 FEW020 16/08 Q1011 NOSIG
cycle: 7

Station Type Date Time Source
LEIB TAF 2018/12/13 03:27 UTC NOAA

TAF LEIB 130200Z 1303/1403 26015KT 9999 SCT014 TX17/1312Z TN07/1306Z
TEMPO 1303/1306 24009KT
TEMPO 1309/1315 27015G25KT PROB40 1310/1320 4000 SHRA FEW018TCU BKN020 PROB40 1320/1403 4000 TSRA FEW018CB BKN020
TEMPO 1318/1403 32020G35KT


Example: see airport list